Time;durP1;ratioP1;P1;durP2;ratioP2;P2;SDS_P1;SDS_P2;PMS_P1;PMS_P2;Temp;Humidity;BMP_temperature;BMP_pressure;BME280_temperature;BME280_humidity;BME280_pressure;Samples;Min_cycle;Max_cycle;Signal;HPM_P1;HPM_P2
2022/01/15 00:02:11;;;;;;;22.33;10.90;;;;;;;2.91;90.02;101529.91;5046835;28;20594;-88
2022/01/15 00:04:36;;;;;;;20.33;11.15;;;;;;;2.79;90.04;101531.25;5028589;28;20037;-89
2022/01/15 00:07:01;;;;;;;26.42;11.80;;;;;;;2.71;90.84;101528.56;5046920;28;20114;-89
2022/01/15 00:09:27;;;;;;;18.00;10.60;;;;;;;2.54;91.12;101528.59;5028422;28;20091;-89
2022/01/15 00:11:53;;;;;;;24.00;13.30;;;;;;;2.64;91.31;101526.56;5065189;28;20059;-88
2022/01/15 00:14:28;;;;;;;26.55;13.63;;;;;;;2.73;90.88;101515.78;5066063;28;20044;-89
2022/01/15 00:17:05;;;;;;;24.85;13.68;;;;;;;2.58;91.47;101515.63;5049061;28;20039;-89
2022/01/15 00:19:41;;;;;;;23.17;12.18;;;;;;;2.52;91.10;101520.66;5066328;28;20032;-89
2022/01/15 00:22:18;;;;;;;26.63;10.10;;;;;;;2.57;91.73;101512.09;5063240;28;20544;-88
2022/01/15 00:24:45;;;;;;;22.33;12.10;;;;;;;2.65;90.84;101509.38;5066281;28;20491;-89
2022/01/15 00:27:11;;;;;;;19.40;12.45;;;;;;;2.60;90.35;101508.22;5066164;28;20035;-89
2022/01/15 00:29:36;;;;;;;23.88;13.07;;;;;;;2.50;91.17;101500.31;5065527;28;20037;-88
2022/01/15 00:32:03;;;;;;;24.48;13.70;;;;;;;2.35;91.87;101503.66;5047168;28;20029;-89
2022/01/15 00:34:29;;;;;;;24.10;13.45;;;;;;;2.49;90.88;101515.63;5028143;28;20045;-89
2022/01/15 00:36:54;;;;;;;22.23;11.82;;;;;;;2.70;89.79;101505.34;5046029;28;20095;-89
2022/01/15 00:39:20;;;;;;;30.70;12.07;;;;;;;2.71;89.59;101497.09;5045881;28;20064;-89
2022/01/15 00:41:45;;;;;;;18.17;11.35;;;;;;;2.71;90.04;101498.94;5045703;28;20041;-88
2022/01/15 00:44:11;;;;;;;20.35;13.20;;;;;;;2.52;90.42;101493.72;5044137;28;20086;-88
2022/01/15 00:46:36;;;;;;;22.55;13.27;;;;;;;2.58;90.56;101492.25;5054282;28;20021;-88
2022/01/15 00:49:02;;;;;;;26.08;12.85;;;;;;;2.53;90.33;101491.88;5048322;28;20411;-88
2022/01/15 00:51:28;;;;;;;19.25;12.05;;;;;;;2.58;90.73;101496.78;5047953;28;20024;-89
2022/01/15 00:53:53;;;;;;;22.60;11.85;;;;;;;2.54;90.88;101490.88;5066177;28;20153;-88
2022/01/15 00:56:18;;;;;;;25.85;12.25;;;;;;;2.75;90.52;101481.44;5065777;28;20059;-89
2022/01/15 00:58:44;;;;;;;23.48;12.77;;;;;;;2.76;89.96;101472.34;5065098;28;20088;-89
2022/01/15 01:01:09;;;;;;;16.08;9.77;;;;;;;2.77;89.78;101484.78;5065829;28;20056;-89
2022/01/15 01:03:34;;;;;;;24.48;12.30;;;;;;;2.84;89.83;101477.72;5064415;28;20028;-89
2022/01/15 01:06:00;;;;;;;16.48;9.98;;;;;;;2.94;89.55;101474.00;5065673;28;20054;-88
2022/01/15 01:08:25;;;;;;;17.52;10.95;;;;;;;2.90;89.48;101462.72;5065251;28;20090;-88
2022/01/15 01:10:54;;;;;;;21.85;10.27;;;;;;;2.79;90.05;101458.53;5064675;28;20059;-88
2022/01/15 01:24:00;;;;;;;17.42;9.68;;;;;;;2.81;89.95;101451.13;5065111;28;20373;-89
2022/01/15 01:26:31;;;;;;;18.70;9.82;;;;;;;2.72;89.44;101444.06;5065863;28;20035;-89
2022/01/15 01:29:10;;;;;;;19.48;11.13;;;;;;;2.70;89.91;101446.09;5046436;28;20036;-89
2022/01/15 01:31:41;;;;;;;20.50;10.52;;;;;;;2.55;90.30;101461.09;5037024;28;20092;-88
2022/01/15 01:34:11;;;;;;;12.68;7.03;;;;;;;2.61;90.33;101443.41;5034275;28;20049;-89
2022/01/15 01:36:47;;;;;;;12.35;7.15;;;;;;;2.70;90.90;101435.31;5025541;28;20029;-88
2022/01/15 01:39:18;;;;;;;17.25;8.02;;;;;;;2.71;89.98;101437.84;5025092;28;20037;-90
2022/01/15 01:41:53;;;;;;;15.77;9.25;;;;;;;2.90;89.57;101436.63;5043320;28;20055;-88
2022/01/15 01:44:24;;;;;;;17.35;9.98;;;;;;;2.91;89.08;101441.00;5043903;28;20037;-89
2022/01/15 01:46:53;;;;;;;14.38;8.30;;;;;;;2.77;89.63;101436.31;5044696;28;20104;-89
2022/01/15 01:49:19;;;;;;;13.55;7.72;;;;;;;2.80;89.20;101439.53;5026509;28;20033;-88
2022/01/15 01:51:45;;;;;;;14.77;8.23;;;;;;;2.69;90.47;101437.16;5044753;28;20032;-89
2022/01/15 01:54:13;;;;;;;13.85;7.82;;;;;;;2.71;89.98;101440.53;5044874;28;20496;-89
2022/01/15 01:56:38;;;;;;;14.57;8.25;;;;;;;2.66;90.92;101435.66;5044629;28;20024;-89
2022/01/15 01:59:05;;;;;;;11.95;7.18;;;;;;;2.72;90.39;101433.28;5043852;28;20110;-88
2022/01/15 02:01:32;;;;;;;12.13;7.78;;;;;;;2.80;89.57;101436.81;5044480;28;20025;-88
2022/01/15 02:03:58;;;;;;;15.02;8.52;;;;;;;2.83;89.41;101440.19;5044354;28;20036;-88
2022/01/15 02:06:23;;;;;;;13.30;7.50;;;;;;;2.85;89.84;101427.38;5044657;28;20479;-88
2022/01/15 02:08:49;;;;;;;16.80;9.80;;;;;;;2.90;88.97;101428.53;5044882;28;20056;-89
2022/01/15 02:11:15;;;;;;;15.95;7.25;;;;;;;3.02;88.85;101433.56;5043378;28;20468;-88
2022/01/15 02:13:44;;;;;;;16.23;9.23;;;;;;;2.88;89.05;101427.03;5043727;28;20077;-88
2022/01/15 02:16:10;;;;;;;11.48;6.72;;;;;;;2.87;89.50;101409.16;5042258;28;20547;-89
2022/01/15 02:18:36;;;;;;;11.57;7.30;;;;;;;2.99;89.59;101417.75;5043901;28;20091;-88
2022/01/15 02:23:36;;;;;;;;;;;;;;;2.97;89.18;101414.38;5044823;28;20230;-88
2022/01/15 02:26:08;;;;;;;18.25;8.10;;;;;;;2.95;89.46;101414.53;5044716;28;19958;-88
2022/01/15 02:28:36;;;;;;;15.88;8.70;;;;;;;2.83;89.44;101403.28;5043765;28;20440;-88
2022/01/15 02:31:04;;;;;;;14.80;8.65;;;;;;;2.80;89.68;101409.03;5059946;28;20115;-88
2022/01/15 02:33:30;;;;;;;15.32;7.97;;;;;;;2.98;89.18;101400.72;5049194;28;20495;-89
2022/01/15 02:35:55;;;;;;;18.73;9.25;;;;;;;2.75;90.01;101401.47;5064277;28;20075;-89
2022/01/15 02:38:21;;;;;;;13.65;8.63;;;;;;;2.67;89.68;101405.00;5064348;28;20024;-88
2022/01/15 02:40:47;;;;;;;18.05;11.02;;;;;;;2.91;89.55;101399.72;5062984;28;20044;-88
2022/01/15 02:43:18;;;;;;;17.98;9.82;;;;;;;2.89;89.35;101389.13;5063267;28;20036;-88
2022/01/15 02:45:53;;;;;;;14.30;8.30;;;;;;;2.95;89.83;101390.28;5064337;28;20464;-89
2022/01/15 02:48:19;;;;;;;13.57;6.30;;;;;;;2.84;89.67;101393.34;5064406;28;20067;-88
2022/01/15 02:50:46;;;;;;;16.00;7.57;;;;;;;2.88;90.17;101395.53;5064092;28;20072;-89
2022/01/15 02:53:16;;;;;;;14.25;6.28;;;;;;;2.84;89.50;101399.59;5064053;28;20039;-88
2022/01/15 02:55:42;;;;;;;12.30;6.55;;;;;;;2.90;89.33;101398.06;5063808;28;20183;-88
2022/01/15 02:58:07;;;;;;;14.07;7.63;;;;;;;2.63;90.06;101392.91;5063785;28;20032;-88
2022/01/15 03:00:34;;;;;;;12.43;6.55;;;;;;;2.88;89.31;101389.31;5063617;28;20087;-88
2022/01/15 03:02:59;;;;;;;12.38;6.65;;;;;;;2.66;90.57;101386.34;5063717;28;20487;-89
2022/01/15 03:05:24;;;;;;;14.68;5.60;;;;;;;2.89;89.22;101381.03;5043634;28;20051;-88
2022/01/15 03:07:50;;;;;;;11.85;7.57;;;;;;;2.78;89.27;101373.34;5056010;28;20029;-89
2022/01/15 03:10:15;;;;;;;14.57;8.00;;;;;;;2.88;88.66;101365.91;5063733;28;20020;-88
2022/01/15 03:12:40;;;;;;;20.52;9.05;;;;;;;3.07;88.87;101371.88;5064482;28;20017;-88
2022/01/15 03:15:08;;;;;;;15.63;8.25;;;;;;;3.11;88.71;101373.22;5064290;28;20475;-89
2022/01/15 03:17:33;;;;;;;13.23;6.53;;;;;;;2.89;88.68;101367.56;5046535;28;20036;-88
2022/01/15 03:20:00;;;;;;;16.33;6.57;;;;;;;2.91;89.64;101356.63;5063771;28;20056;-88
2022/01/15 03:25:28;;;;;;;16.42;7.28;;;;;;;2.64;89.99;101354.19;5056137;28;20043;-89
2022/01/15 03:27:54;;;;;;;15.02;8.57;;;;;;;2.65;90.67;101342.41;5067540;28;20032;-88
2022/01/15 03:30:20;;;;;;;18.50;8.00;;;;;;;2.74;90.31;101331.59;5067536;28;20033;-87
2022/01/15 03:32:45;;;;;;;11.68;6.18;;;;;;;2.69;90.65;101332.13;5068201;28;20495;-89
2022/01/15 03:35:13;;;;;;;14.32;6.78;;;;;;;2.84;90.15;101339.47;5067543;28;20056;-88
2022/01/15 03:37:39;;;;;;;14.32;8.63;;;;;;;2.64;90.20;101345.28;5050086;28;20376;-88
2022/01/15 03:40:07;;;;;;;14.50;7.75;;;;;;;2.65;91.04;101339.72;5068335;28;20169;-89
2022/01/15 03:42:33;;;;;;;14.60;7.28;;;;;;;2.54;91.04;101337.41;5067267;28;20029;-88
2022/01/15 03:44:58;;;;;;;14.70;6.35;;;;;;;2.44;91.49;101341.09;5067580;28;20027;-89
2022/01/15 03:47:23;;;;;;;14.30;8.35;;;;;;;2.40;91.57;101342.44;5082691;28;20024;-87
2022/01/15 03:49:49;;;;;;;12.43;8.20;;;;;;;2.54;91.90;101329.31;5087714;28;20047;-88
2022/01/15 03:52:14;;;;;;;11.02;6.65;;;;;;;2.63;91.96;101327.41;5088215;28;20027;-89
2022/01/15 03:54:39;;;;;;;13.93;6.68;;;;;;;2.62;90.69;101325.75;5088112;28;20024;-89
2022/01/15 03:57:05;;;;;;;16.70;8.13;;;;;;;2.58;90.78;101322.56;5087766;28;20355;-88
2022/01/15 03:59:32;;;;;;;14.50;8.05;;;;;;;2.75;90.62;101319.78;5086927;28;20421;-88
2022/01/15 04:01:57;;;;;;;16.02;7.57;;;;;;;2.73;90.47;101325.38;5068839;28;20029;-88
2022/01/15 04:04:22;;;;;;;13.80;6.28;;;;;;;2.64;91.15;101319.19;5067201;28;20945;-88
2022/01/15 04:06:48;;;;;;;14.18;6.57;;;;;;;2.78;90.41;101324.84;5067803;28;20360;-88
2022/01/15 04:09:14;;;;;;;13.52;5.65;;;;;;;2.66;89.78;101319.84;5067405;28;20181;-89
2022/01/15 04:11:39;;;;;;;12.98;6.60;;;;;;;2.47;90.65;101307.63;5067540;28;20024;-87
2022/01/15 04:14:06;;;;;;;14.38;8.20;;;;;;;2.44;91.95;101300.72;5066830;28;20024;-88
2022/01/15 04:16:31;;;;;;;14.63;6.50;;;;;;;2.58;90.53;101292.94;5067555;28;20045;-86
2022/01/15 04:18:57;;;;;;;12.18;5.95;;;;;;;2.75;89.99;101293.72;5049445;28;20530;-88
2022/01/15 04:21:23;;;;;;;10.35;6.00;;;;;;;2.56;90.30;101292.28;5067106;28;20028;-87
2022/01/15 04:23:48;;;;;;;10.30;5.45;;;;;;;2.43;90.94;101290.97;5067359;28;20431;-87
2022/01/15 04:26:13;;;;;;;13.75;5.30;;;;;;;2.61;90.66;101287.19;5067199;28;20032;-89
2022/01/15 04:28:39;;;;;;;10.48;6.20;;;;;;;2.75;89.81;101285.63;5048804;28;20476;-88
2022/01/15 04:31:06;;;;;;;9.80;5.05;;;;;;;2.70;89.59;101287.16;5049172;28;20020;-88
2022/01/15 04:33:34;;;;;;;12.48;6.57;;;;;;;2.51;90.35;101286.56;5067138;28;20131;-88
2022/01/15 04:35:59;;;;;;;10.02;4.93;;;;;;;2.42;90.19;101286.59;5066757;28;20040;-89
2022/01/15 04:38:25;;;;;;;10.25;4.93;;;;;;;2.42;91.02;101286.59;5048982;28;20020;-88
2022/01/15 04:40:50;;;;;;;9.57;4.72;;;;;;;2.40;90.44;101285.09;5048546;28;20073;-88
2022/01/15 04:43:15;;;;;;;11.68;5.13;;;;;;;2.37;90.31;101290.81;5066371;28;20471;-88
2022/01/15 04:45:41;;;;;;;13.13;4.95;;;;;;;2.59;89.67;101281.16;5067261;28;20036;-88
2022/01/15 04:48:06;;;;;;;12.93;5.95;;;;;;;2.53;89.20;101279.16;5068594;28;20020;-89
2022/01/15 04:50:31;;;;;;;8.68;4.93;;;;;;;2.59;88.82;101270.38;5087184;28;20023;-89
2022/01/15 04:52:57;;;;;;;8.23;4.25;;;;;;;2.51;89.29;101275.78;5086699;28;20555;-88
2022/01/15 04:55:22;;;;;;;12.13;5.82;;;;;;;2.33;89.44;101274.16;5086583;28;20421;-87
2022/01/15 04:57:47;;;;;;;13.70;6.13;;;;;;;2.38;89.25;101266.41;5086006;28;20127;-88
2022/01/15 05:00:16;;;;;;;13.95;5.72;;;;;;;2.48;89.55;101260.00;5081787;28;20028;-87
2022/01/15 05:02:41;;;;;;;14.05;5.15;;;;;;;2.17;90.05;101257.06;5066499;28;20028;-89
2022/01/15 05:08:12;;;;;;;13.27;5.70;;;;;;;2.18;90.33;101272.19;5061599;28;20499;-88
2022/01/15 05:10:44;;;;;;;17.02;6.22;;;;;;;2.14;89.46;101267.31;5066002;28;20077;-88
2022/01/15 05:13:10;;;;;;;9.93;5.97;;;;;;;2.07;90.59;101272.53;5065159;28;20460;-88
2022/01/15 05:15:35;;;;;;;21.70;6.68;;;;;;;1.96;90.27;101271.03;5066178;28;20039;-87
2022/01/15 05:18:00;;;;;;;15.70;7.13;;;;;;;2.08;90.12;101267.00;5065987;28;20094;-88
2022/01/15 05:20:25;;;;;;;13.95;5.80;;;;;;;2.11;89.95;101265.81;5048139;28;20032;-89
2022/01/15 05:22:51;;;;;;;33.03;7.88;;;;;;;2.25;89.57;101271.50;5065547;28;20032;-89
2022/01/15 05:25:19;;;;;;;12.00;6.10;;;;;;;1.97;89.64;101273.56;5066032;28;20082;-89
2022/01/15 05:27:47;;;;;;;18.08;4.18;;;;;;;1.73;90.94;101285.16;5065800;28;20029;-88
2022/01/15 05:30:13;;;;;;;10.45;5.35;;;;;;;1.77;91.48;101275.75;5065545;28;20017;-88
2022/01/15 05:32:39;;;;;;;14.25;5.22;;;;;;;1.69;91.12;101265.84;5065974;28;20032;-88
2022/01/15 05:35:25;;;;;;;9.98;5.70;;;;;;;1.81;91.51;101270.91;5047579;28;20486;-89
2022/01/15 05:37:51;;;;;;;17.75;6.00;;;;;;;1.59;91.97;101267.84;5048062;28;20508;-88
2022/01/15 05:40:16;;;;;;;18.00;6.15;;;;;;;1.55;92.10;101261.97;5065500;28;20035;-89
2022/01/15 05:42:41;;;;;;;10.23;4.38;;;;;;;1.56;91.83;101265.53;5047704;28;20520;-89
2022/01/15 05:45:07;;;;;;;8.27;4.55;;;;;;;1.49;92.48;101268.03;5065474;28;20031;-88
2022/01/15 05:47:32;;;;;;;13.82;5.18;;;;;;;1.50;92.22;101258.97;5081409;28;20028;-88
2022/01/15 05:49:58;;;;;;;11.80;5.47;;;;;;;1.54;92.47;101263.00;5085371;28;20093;-88
2022/01/15 05:52:23;;;;;;;19.83;4.97;;;;;;;1.53;91.90;101268.56;5085473;28;20437;-88
2022/01/15 05:54:48;;;;;;;13.18;5.82;;;;;;;1.56;92.48;101268.22;5085884;28;20028;-88
2022/01/15 05:57:13;;;;;;;14.07;5.57;;;;;;;1.55;92.28;101269.19;5086139;28;20028;-88
2022/01/15 05:59:39;;;;;;;17.98;6.03;;;;;;;1.62;92.34;101271.06;5085660;28;20475;-88
2022/01/15 06:02:04;;;;;;;16.38;5.43;;;;;;;1.55;92.33;101269.19;5065808;28;20032;-89
2022/01/15 06:04:29;;;;;;;15.23;6.35;;;;;;;1.48;92.51;101277.97;5066021;28;20036;-88
2022/01/15 06:06:54;;;;;;;19.65;6.47;;;;;;;1.49;92.70;101279.63;5065945;28;20024;-88
2022/01/15 06:09:20;;;;;;;30.70;7.32;;;;;;;1.48;92.38;101280.66;5064532;28;20032;-87
2022/01/15 06:11:45;;;;;;;18.23;6.93;;;;;;;1.50;92.57;101278.63;5065454;28;20082;-88
2022/01/15 06:14:10;;;;;;;25.23;9.23;;;;;;;1.46;92.56;101276.44;5064655;28;20421;-88
2022/01/15 06:16:36;;;;;;;36.33;7.88;;;;;;;1.40;93.21;101265.31;5065298;28;20036;-89
2022/01/15 06:19:02;;;;;;;16.50;6.47;;;;;;;1.37;93.27;101276.44;5065557;28;20576;-88
2022/01/15 06:21:27;;;;;;;19.30;5.70;;;;;;;1.37;93.13;101279.13;5047111;28;20115;-87
2022/01/15 06:23:52;;;;;;;12.05;6.35;;;;;;;1.40;93.02;101276.09;5064623;28;20111;-88
2022/01/15 06:26:17;;;;;;;13.43;7.03;;;;;;;1.47;93.46;101276.25;5064738;28;20112;-88
2022/01/15 06:28:43;;;;;;;16.25;8.15;;;;;;;1.39;93.32;101282.47;5065100;28;20303;-89
2022/01/15 06:31:08;;;;;;;14.18;7.18;;;;;;;1.49;93.36;101279.63;5065755;28;20505;-88
2022/01/15 06:33:33;;;;;;;15.93;6.30;;;;;;;1.51;93.11;101280.31;5065106;28;20075;-88
2022/01/15 06:35:59;;;;;;;26.00;6.72;;;;;;;1.44;93.06;101276.63;5065285;28;20033;-89
2022/01/15 06:41:08;;;;;;;17.02;7.90;;;;;;;1.40;93.60;101277.94;5064525;28;20135;-89
2022/01/15 06:43:33;;;;;;;15.73;8.13;;;;;;;1.47;93.65;101283.47;5046676;28;20119;-88
2022/01/15 06:45:59;;;;;;;18.88;6.90;;;;;;;1.49;93.10;101295.75;5067828;28;20024;-88
2022/01/15 06:48:24;;;;;;;21.05;7.80;;;;;;;1.46;93.08;101274.59;5085480;28;20020;-88
2022/01/15 06:50:50;;;;;;;33.47;7.82;;;;;;;1.66;92.35;101262.66;5084347;28;20028;-88
2022/01/15 06:53:15;;;;;;;21.15;7.75;;;;;;;1.55;92.54;101270.06;5084949;28;20066;-89
2022/01/15 06:55:41;;;;;;;27.15;7.95;;;;;;;1.47;93.25;101270.03;5076142;28;20419;-87
2022/01/15 06:58:06;;;;;;;23.63;6.82;;;;;;;1.55;92.49;101272.75;5064925;28;20052;-88
2022/01/15 07:00:31;;;;;;;19.27;6.53;;;;;;;1.48;92.93;101269.91;5065638;28;20048;-88
2022/01/15 07:03:00;;;;;;;16.95;5.85;;;;;;;1.47;92.76;101260.13;5069067;28;20036;-89
2022/01/15 07:05:26;;;;;;;24.45;7.80;;;;;;;1.42;93.38;101262.50;5068579;28;20027;-88
2022/01/15 07:07:52;;;;;;;18.30;6.78;;;;;;;1.44;93.18;101254.25;5068716;28;20024;-88
2022/01/15 07:10:18;;;;;;;18.42;7.00;;;;;;;1.48;93.48;101261.84;5068444;28;20113;-88
2022/01/15 07:12:43;;;;;;;18.95;7.57;;;;;;;1.42;92.87;101261.66;5067432;28;20067;-88
2022/01/15 07:15:09;;;;;;;16.88;8.45;;;;;;;1.45;92.88;101254.09;5067993;28;20427;-88
2022/01/15 07:17:41;;;;;;;14.88;7.70;;;;;;;1.50;92.69;101249.06;5068260;28;20476;-89
2022/01/15 07:20:07;;;;;;;11.55;7.55;;;;;;;1.46;92.26;101246.88;5067538;28;20032;-89
2022/01/15 07:22:32;;;;;;;17.35;5.95;;;;;;;1.51;92.74;101255.25;5067867;28;20364;-88
2022/01/15 07:24:57;;;;;;;26.80;8.43;;;;;;;1.46;92.14;101252.25;5068145;28;20017;-88
2022/01/15 07:30:08;;;;;;;17.00;8.02;;;;;;;1.37;93.07;101254.94;5061891;28;20077;-89
2022/01/15 07:32:34;;;;;;;18.17;6.13;;;;;;;1.50;92.83;101242.84;5068075;28;20032;-88
2022/01/15 07:34:59;;;;;;;16.90;6.53;;;;;;;1.45;93.80;101235.28;5067647;28;20052;-87
2022/01/15 07:37:25;;;;;;;56.95;9.25;;;;;;;1.22;93.72;101235.09;5067409;28;20024;-89
2022/01/15 07:39:50;;;;;;;30.20;8.35;;;;;;;1.31;94.63;101242.16;5067357;28;20039;-88
2022/01/15 07:42:16;;;;;;;20.80;8.82;;;;;;;1.33;94.18;101231.22;5067787;28;20035;-89
2022/01/15 07:44:41;;;;;;;23.98;6.85;;;;;;;1.38;93.99;101226.22;5066895;28;20062;-87
2022/01/15 07:47:07;;;;;;;40.60;9.30;;;;;;;1.29;94.91;101230.72;5069244;28;20035;-88
2022/01/15 07:49:33;;;;;;;49.80;9.70;;;;;;;1.28;95.35;101229.88;5067123;28;20039;-89
2022/01/15 07:51:59;;;;;;;57.65;9.55;;;;;;;1.45;94.73;101234.41;5070046;28;20044;-88
2022/01/15 07:54:24;;;;;;;50.78;9.00;;;;;;;1.42;94.65;101230.25;5074253;28;20040;-88
2022/01/15 07:56:54;;;;;;;38.97;8.05;;;;;;;1.49;94.00;101225.88;5067273;28;20035;-88
2022/01/15 07:59:20;;;;;;;33.75;9.45;;;;;;;1.42;93.83;101230.25;5064120;28;20303;-88
2022/01/15 08:01:45;;;;;;;20.85;7.30;;;;;;;1.47;94.22;101227.03;5064552;28;20036;-89
2022/01/15 08:04:10;;;;;;;18.80;6.70;;;;;;;1.33;93.83;101231.22;5067381;28;20016;-88
2022/01/15 08:06:36;;;;;;;13.75;8.27;;;;;;;1.54;93.65;101224.53;5067270;28;20040;-89
2022/01/15 08:09:01;;;;;;;15.82;7.95;;;;;;;1.44;93.15;101227.38;5067585;28;20098;-88
2022/01/15 08:11:26;;;;;;;22.52;7.95;;;;;;;1.36;93.50;101225.53;5049166;28;20021;-86
2022/01/15 08:13:51;;;;;;;15.73;8.27;;;;;;;1.46;92.99;101222.69;5067046;28;20021;-89
2022/01/15 08:16:17;;;;;;;11.82;7.75;;;;;;;1.24;92.72;101222.34;5067093;28;20047;-88
2022/01/15 08:18:42;;;;;;;13.60;7.13;;;;;;;1.24;93.74;101216.97;5049195;28;20103;-88
2022/01/15 08:21:07;;;;;;;15.00;6.88;;;;;;;1.46;92.87;101217.31;5066797;28;20033;-88
2022/01/15 08:23:35;;;;;;;16.48;6.68;;;;;;;1.63;91.48;101210.91;5048976;28;20044;-89
2022/01/15 08:26:01;;;;;;;14.30;6.80;;;;;;;1.51;91.12;101218.47;5049225;28;20040;-88
2022/01/15 08:28:26;;;;;;;10.77;6.65;;;;;;;1.36;91.64;101215.59;5058917;28;20565;-88
2022/01/15 08:30:51;;;;;;;16.23;7.55;;;;;;;1.40;92.25;101213.44;5049410;28;20018;-89
2022/01/15 08:36:01;;;;;;;13.68;7.72;;;;;;;1.34;91.85;101224.84;5060900;28;20063;-88
2022/01/15 08:38:26;;;;;;;13.70;6.97;;;;;;;1.31;91.90;101222.50;5067184;28;20491;-89
2022/01/15 08:40:52;;;;;;;20.50;8.48;;;;;;;1.40;91.49;101227.69;5066776;28;20021;-88
2022/01/15 08:43:17;;;;;;;17.13;7.82;;;;;;;1.63;90.69;101215.44;5066504;28;20037;-88
2022/01/15 08:45:43;;;;;;;10.68;6.35;;;;;;;1.81;90.35;101217.94;5067464;28;20036;-89
2022/01/15 08:48:09;;;;;;;19.45;6.53;;;;;;;1.47;90.83;101222.50;5086832;28;20491;-89
2022/01/15 08:50:36;;;;;;;24.13;8.27;;;;;;;1.60;90.79;101218.47;5086847;28;20024;-88
2022/01/15 08:53:02;;;;;;;18.95;7.28;;;;;;;1.31;91.40;101220.66;5086956;28;20032;-89
2022/01/15 08:55:29;;;;;;;29.27;7.28;;;;;;;1.50;91.22;101227.56;5079531;28;20545;-88
2022/01/15 08:57:58;;;;;;;18.30;8.30;;;;;;;1.42;91.02;101224.88;5066011;28;20398;-89
2022/01/15 09:00:24;;;;;;;18.00;7.10;;;;;;;1.43;92.07;101221.16;5066020;28;20110;-88
2022/01/15 09:02:49;;;;;;;16.30;7.85;;;;;;;1.63;91.34;101223.50;5059803;28;20029;-88
2022/01/15 09:05:15;;;;;;;14.68;6.88;;;;;;;1.51;91.38;101225.69;5058758;28;20036;-88
2022/01/15 09:07:41;;;;;;;17.17;8.65;;;;;;;1.55;91.13;101223.50;5046592;28;20029;-88
2022/01/15 09:10:08;;;;;;;13.25;6.10;;;;;;;1.62;91.00;101216.44;5045712;28;20032;-89
2022/01/15 09:12:34;;;;;;;13.40;6.78;;;;;;;1.55;91.92;101223.50;5046401;28;20033;-88
2022/01/15 09:14:59;;;;;;;17.88;9.20;;;;;;;1.59;91.76;101222.16;5081186;28;20588;-88
2022/01/15 09:17:26;;;;;;;15.50;6.88;;;;;;;1.59;91.57;101227.53;5066018;28;20055;-89
2022/01/15 09:19:51;;;;;;;11.13;6.20;;;;;;;1.53;91.21;101225.53;5065865;28;20110;-89
2022/01/15 09:22:16;;;;;;;20.40;7.20;;;;;;;1.58;90.67;101223.19;5066033;28;20032;-89
2022/01/15 09:24:44;;;;;;;12.68;6.47;;;;;;;1.49;92.22;101222.31;5065062;28;20090;-89
2022/01/15 09:30:12;;;;;;;13.23;5.25;;;;;;;1.44;91.97;101219.31;5066099;28;20050;-88
2022/01/15 09:32:49;;;;;;;14.65;5.95;;;;;;;1.68;91.16;101212.25;5047436;28;20513;-89
2022/01/15 09:35:18;;;;;;;15.88;5.80;;;;;;;1.54;91.48;101205.69;5065557;28;20033;-88
2022/01/15 09:37:43;;;;;;;10.95;5.22;;;;;;;1.68;91.19;101196.94;5066146;28;20116;-88
2022/01/15 09:40:10;;;;;;;14.82;6.28;;;;;;;1.86;91.00;101202.13;5065804;28;20103;-90
2022/01/15 09:42:49;;;;;;;16.45;7.45;;;;;;;1.82;90.87;101197.25;5065320;28;20040;-88
2022/01/15 09:45:16;;;;;;;13.15;6.03;;;;;;;1.75;90.90;101195.25;5065399;28;20421;-88
2022/01/15 09:47:42;;;;;;;15.82;7.70;;;;;;;1.88;90.21;101190.34;5082734;28;20073;-89
2022/01/15 09:50:16;;;;;;;14.32;7.97;;;;;;;1.75;91.24;101183.66;5079313;28;20039;-88
2022/01/15 09:52:41;;;;;;;13.57;5.90;;;;;;;1.88;91.15;101193.88;5065575;28;20039;-88
2022/01/15 09:55:11;;;;;;;10.52;5.45;;;;;;;1.92;91.17;101187.16;5065185;28;20028;-89
2022/01/15 09:57:39;;;;;;;35.80;6.45;;;;;;;1.88;90.55;101191.19;5064287;28;20051;-88
2022/01/15 10:00:08;;;;;;;9.82;5.80;;;;;;;1.78;90.94;101177.09;5065003;28;20103;-87
2022/01/15 10:02:36;;;;;;;11.35;5.65;;;;;;;2.04;89.65;101184.09;5080422;28;20043;-88
2022/01/15 10:05:01;;;;;;;10.40;5.60;;;;;;;2.11;90.17;101174.31;5064344;28;20067;-88
2022/01/15 10:07:28;;;;;;;13.75;5.63;;;;;;;1.79;90.21;101176.91;5064379;28;20056;-87
2022/01/15 10:09:55;;;;;;;13.02;5.80;;;;;;;2.02;90.94;101180.72;5046939;28;20115;-87
2022/01/15 10:12:31;;;;;;;11.93;6.03;;;;;;;1.85;90.38;101173.53;5064602;28;20195;-89
2022/01/15 10:15:03;;;;;;;12.50;5.07;;;;;;;2.07;90.33;101176.53;5063807;28;20039;-88
2022/01/15 10:17:34;;;;;;;11.73;5.38;;;;;;;2.06;89.60;101171.28;5064364;28;20066;-88
2022/01/15 10:20:03;;;;;;;13.60;6.70;;;;;;;2.13;90.06;101169.59;5044348;28;20408;-88
2022/01/15 10:22:29;;;;;;;10.07;5.82;;;;;;;2.18;89.60;101167.22;5063552;28;20028;-88
2022/01/15 10:25:01;;;;;;;10.48;5.78;;;;;;;2.16;89.71;101165.72;5063909;28;20178;-88
2022/01/15 10:27:31;;;;;;;11.82;6.25;;;;;;;2.27;89.46;101167.19;5046436;28;20027;-88
2022/01/15 10:30:15;;;;;;;12.15;5.78;;;;;;;2.32;89.35;101160.25;5064101;28;20024;-87
2022/01/15 10:32:53;;;;;;;12.00;7.07;;;;;;;2.26;89.70;101160.97;5062490;28;20035;-88
2022/01/15 10:35:18;;;;;;;10.75;5.63;;;;;;;2.50;88.29;101161.03;5039366;28;20041;-88
2022/01/15 10:37:57;;;;;;;11.75;6.07;;;;;;;2.21;89.30;101164.19;5043441;28;20031;-88
2022/01/15 10:40:27;;;;;;;8.40;4.95;;;;;;;2.19;89.76;101170.75;5042989;28;20323;-88
2022/01/15 10:42:56;;;;;;;15.43;6.78;;;;;;;2.19;90.71;101160.00;5030537;28;20024;-88
2022/01/15 10:45:24;;;;;;;13.82;8.02;;;;;;;2.36;89.98;101159.94;5045406;28;20033;-88
2022/01/15 10:47:53;;;;;;;11.52;6.93;;;;;;;2.46;90.19;101157.88;5044764;28;20515;-88
2022/01/15 10:50:24;;;;;;;11.57;6.65;;;;;;;2.49;89.02;101159.34;5044160;28;20025;-88
2022/01/15 10:52:51;;;;;;;15.80;7.15;;;;;;;2.42;89.73;101149.28;5027982;28;20131;-88
2022/01/15 10:55:17;;;;;;;12.30;5.45;;;;;;;2.48;89.75;101153.16;5047476;28;20017;-88
2022/01/15 11:00:51;;;;;;;24.92;10.18;;;;;;;2.35;89.79;101142.94;5030223;28;20041;-88
2022/01/15 11:03:17;;;;;;;14.90;7.40;;;;;;;2.41;89.76;101136.84;5044483;28;20083;-88
2022/01/15 11:05:48;;;;;;;13.65;7.25;;;;;;;2.42;89.82;101130.44;5044148;28;20024;-88
2022/01/15 11:08:17;;;;;;;12.65;6.88;;;;;;;2.36;90.11;101112.28;5047238;28;20377;-87
2022/01/15 11:10:50;;;;;;;17.38;10.15;;;;;;;2.54;90.70;101113.88;5044698;28;20013;-87
2022/01/15 11:13:17;;;;;;;15.10;8.55;;;;;;;2.53;89.48;101121.13;5026521;28;20658;-88
2022/01/15 11:15:45;;;;;;;12.52;7.57;;;;;;;2.53;90.00;101114.88;5045948;28;20131;-88
2022/01/15 11:18:18;;;;;;;17.48;9.02;;;;;;;2.56;90.14;101115.38;5047307;28;20037;-88
2022/01/15 11:20:47;;;;;;;15.63;8.73;;;;;;;2.66;89.26;101112.47;5046107;28;20028;-88
2022/01/15 11:23:13;;;;;;;19.35;10.50;;;;;;;2.57;90.50;101113.53;5048434;28;20061;-88
2022/01/15 11:25:39;;;;;;;19.33;11.55;;;;;;;2.51;89.78;101115.06;5048370;28;20501;-87
2022/01/15 11:28:05;;;;;;;16.65;9.57;;;;;;;2.58;90.54;101114.38;5047597;28;20124;-88
2022/01/15 11:30:32;;;;;;;13.38;6.63;;;;;;;2.62;90.06;101115.69;5048273;28;20232;-87
2022/01/15 11:32:57;;;;;;;17.35;8.27;;;;;;;2.51;89.53;101120.47;5049231;28;20029;-88
2022/01/15 11:35:40;;;;;;;18.38;9.55;;;;;;;2.73;90.32;101111.72;5049880;28;20482;-88
2022/01/15 11:38:06;;;;;;;16.08;9.93;;;;;;;2.84;89.65;101099.72;5067911;28;20454;-88
2022/01/15 11:40:34;;;;;;;18.65;11.13;;;;;;;2.73;89.67;101103.66;5068133;28;20017;-88
2022/01/15 11:43:24;;;;;;;16.55;10.65;;;;;;;2.79;89.48;101101.09;5067402;28;20024;-88
2022/01/15 11:45:54;;;;;;;12.55;7.53;;;;;;;2.64;89.45;101102.88;5062216;28;20354;-88
2022/01/15 11:48:33;;;;;;;18.17;9.80;;;;;;;2.66;89.95;101096.31;5067595;28;20020;-89
2022/01/15 11:51:13;;;;;;;16.00;9.15;;;;;;;2.77;90.19;101095.03;5053627;28;20039;-88
2022/01/15 11:53:49;;;;;;;14.77;8.60;;;;;;;2.76;90.11;101092.53;5081589;28;20028;-88
2022/01/15 11:56:22;;;;;;;15.93;8.45;;;;;;;2.62;89.85;101075.28;5087871;28;20132;-87
2022/01/15 11:58:48;;;;;;;22.75;9.63;;;;;;;2.73;90.50;101080.25;5079459;28;20024;-89